createdAt,value
2023-02-03T00:01:34.594Z,99.90
2023-02-03T00:04:37.951Z,99.90
2023-02-03T00:07:41.215Z,99.90
2023-02-03T00:10:44.353Z,99.90
2023-02-03T00:13:47.178Z,99.90
2023-02-03T00:16:51.483Z,99.90
2023-02-03T00:19:54.578Z,99.90
2023-02-03T00:23:04.742Z,99.90
2023-02-03T00:26:11.366Z,99.90
2023-02-03T00:29:14.721Z,99.90
2023-02-03T00:32:19.166Z,99.90
2023-02-03T00:35:22.519Z,99.90
2023-02-03T00:38:29.050Z,99.90
2023-02-03T00:41:32.658Z,99.90
2023-02-03T00:44:35.598Z,99.90
2023-02-03T00:47:40.005Z,99.90
2023-02-03T00:50:43.054Z,99.90
2023-02-03T00:53:46.048Z,99.90
2023-02-03T00:56:49.162Z,99.90
2023-02-03T00:59:52.022Z,99.90
2023-02-03T01:02:56.275Z,99.90
2023-02-03T01:06:10.006Z,99.90
2023-02-03T01:09:12.920Z,99.90
2023-02-03T01:12:15.868Z,99.90
2023-02-03T01:15:18.989Z,99.90
2023-02-03T01:18:23.170Z,99.90
2023-02-03T01:21:27.588Z,99.90
2023-02-03T01:24:30.957Z,99.90
2023-02-03T01:27:34.212Z,99.90
2023-02-03T01:30:37.085Z,99.90
2023-02-03T01:33:42.186Z,99.90
2023-02-03T01:36:46.737Z,99.90
2023-02-03T01:39:49.758Z,99.90
2023-02-03T01:42:52.750Z,99.90
2023-02-03T01:45:55.675Z,99.90
2023-02-03T01:49:08.018Z,99.90
2023-02-03T01:52:11.289Z,99.90
2023-02-03T01:55:18.362Z,99.90
2023-02-03T01:58:24.795Z,99.90
2023-02-03T02:01:28.403Z,99.90
2023-02-03T02:04:42.094Z,99.90
2023-02-03T02:07:46.311Z,99.90
2023-02-03T02:10:49.654Z,99.90
2023-02-03T02:13:54.357Z,99.90
2023-02-03T02:17:05.076Z,99.90
2023-02-03T02:20:32.379Z,99.90
2023-02-03T02:24:30.796Z,99.90
2023-02-03T02:28:14.615Z,99.90
2023-02-03T02:31:37.324Z,99.90
2023-02-03T02:34:51.723Z,99.90
2023-02-03T02:38:01.618Z,99.90
2023-02-03T02:41:09.359Z,99.90
2023-02-03T02:44:17.742Z,99.90
2023-02-03T02:47:24.272Z,99.90
2023-02-03T02:50:31.899Z,99.90
2023-02-03T02:53:38.363Z,99.90
2023-02-03T02:56:43.846Z,99.90
2023-02-03T02:59:47.084Z,99.90
2023-02-03T03:02:51.299Z,99.90
2023-02-03T03:05:56.791Z,99.90
2023-02-03T03:09:05.425Z,99.90
2023-02-03T03:12:13.151Z,99.90
2023-02-03T03:15:22.166Z,99.90
2023-02-03T03:18:31.360Z,99.90
2023-02-03T03:21:38.115Z,99.90
2023-02-03T03:24:46.886Z,99.90
2023-02-03T03:27:53.511Z,99.90
2023-02-03T03:30:56.466Z,99.90
2023-02-03T03:34:00.877Z,99.90
2023-02-03T03:37:11.986Z,99.90
2023-02-03T03:40:22.710Z,99.90
2023-02-03T03:43:29.476Z,99.90
2023-02-03T03:46:38.254Z,99.90
2023-02-03T03:49:46.089Z,99.90
2023-02-03T03:52:52.219Z,99.90
2023-02-03T03:55:56.128Z,99.90
2023-02-03T03:59:00.995Z,99.90
2023-02-03T04:02:05.415Z,99.90
2023-02-03T04:05:11.755Z,99.90
2023-02-03T04:08:14.580Z,99.90
2023-02-03T04:11:37.413Z,99.90
2023-02-03T04:14:40.867Z,99.90
2023-02-03T04:17:43.705Z,99.90
2023-02-03T04:20:47.888Z,99.90
2023-02-03T04:23:51.404Z,99.90
2023-02-03T04:26:54.222Z,99.90
2023-02-03T04:29:57.058Z,99.90
2023-02-03T04:32:59.873Z,99.90
2023-02-03T04:36:04.222Z,99.90
2023-02-03T04:39:07.174Z,99.90
2023-02-03T04:42:10.063Z,99.90
2023-02-03T04:45:13.923Z,99.90
2023-02-03T04:48:16.782Z,99.90
2023-02-03T04:51:20.945Z,99.90
2023-02-03T04:54:23.822Z,99.90
2023-02-03T04:57:26.679Z,99.90
2023-02-03T05:00:30.548Z,99.90
2023-02-03T05:03:33.561Z,99.90
2023-02-03T05:06:37.820Z,99.90
2023-02-03T05:09:40.658Z,99.90
2023-02-03T05:12:43.944Z,99.90
2023-02-03T05:15:46.765Z,99.90
2023-02-03T05:18:49.629Z,99.90
2023-02-03T05:21:53.819Z,99.90
2023-02-03T05:24:56.644Z,99.90
2023-02-03T05:27:59.557Z,99.90
2023-02-03T05:31:03.163Z,99.90
2023-02-03T05:34:06.158Z,99.90
2023-02-03T05:37:10.332Z,99.90
2023-02-03T05:40:31.957Z,99.90
2023-02-03T05:43:34.960Z,99.90
2023-02-03T05:46:37.768Z,99.90
2023-02-03T05:49:40.550Z,99.90
2023-02-03T05:52:44.928Z,99.90
2023-02-03T05:55:47.754Z,99.90
2023-02-03T05:58:53.240Z,99.90
2023-02-03T06:01:56.156Z,99.90
2023-02-03T06:04:59.023Z,99.90
2023-02-03T06:08:03.216Z,99.90
2023-02-03T06:11:06.285Z,99.90
2023-02-03T06:14:09.073Z,99.90
2023-02-03T06:17:12.225Z,99.90
2023-02-03T06:20:17.073Z,99.90
2023-02-03T06:23:21.258Z,99.90
2023-02-03T06:26:25.045Z,99.90
2023-02-03T06:29:27.850Z,99.90
2023-02-03T06:32:30.669Z,99.90
2023-02-03T06:35:33.507Z,99.90
2023-02-03T06:38:37.654Z,99.90
2023-02-03T06:41:40.485Z,99.90
2023-02-03T06:44:43.652Z,99.90
2023-02-03T06:47:47.008Z,99.90
2023-02-03T06:50:50.133Z,99.90
2023-02-03T06:53:54.316Z,99.90
2023-02-03T06:56:57.123Z,99.90
2023-02-03T07:00:00.115Z,99.90
2023-02-03T07:03:03.165Z,99.90
2023-02-03T07:06:06.586Z,99.90
2023-02-03T07:09:10.801Z,99.90
2023-02-03T07:12:13.627Z,99.90
2023-02-03T07:15:16.891Z,99.90
2023-02-03T07:18:45.471Z,99.90
2023-02-03T07:21:47.142Z,99.90
2023-02-03T07:24:51.389Z,99.90
2023-02-03T07:27:54.717Z,99.90
2023-02-03T07:30:57.792Z,99.90
2023-02-03T07:34:01.101Z,99.90
2023-02-03T07:37:04.016Z,99.90
2023-02-03T07:40:09.425Z,99.90
2023-02-03T07:43:12.317Z,99.90
2023-02-03T07:46:15.217Z,99.90
2023-02-03T07:49:18.684Z,99.90
2023-02-03T07:52:22.133Z,99.90
2023-02-03T07:55:26.662Z,99.90
2023-02-03T07:58:30.118Z,99.70
2023-02-03T08:01:34.170Z,99.40
2023-02-03T08:04:37.243Z,99.70
2023-02-03T08:07:40.452Z,99.60
2023-02-03T08:10:44.959Z,99.30
2023-02-03T08:13:47.997Z,99.00
2023-02-03T08:16:51.295Z,98.90
2023-02-03T08:19:54.157Z,98.90
2023-02-03T08:22:57.007Z,99.00
2023-02-03T08:26:01.469Z,98.80
2023-02-03T08:29:04.823Z,98.50
2023-02-03T08:32:10.784Z,98.30
2023-02-03T08:35:13.640Z,98.20
2023-02-03T08:38:16.614Z,98.10
2023-02-03T08:41:20.818Z,98.40
2023-02-03T08:44:23.708Z,98.40
2023-02-03T08:47:27.356Z,98.20
2023-02-03T08:50:30.459Z,97.90
2023-02-03T08:53:33.655Z,97.90
2023-02-03T08:56:37.873Z,97.80
2023-02-03T08:59:43.110Z,98.00
2023-02-03T09:02:46.004Z,97.80
2023-02-03T09:05:48.882Z,97.80
2023-02-03T09:08:51.889Z,97.80
2023-02-03T09:12:02.084Z,97.50
2023-02-03T09:15:05.514Z,97.90
2023-02-03T09:18:08.346Z,97.80
2023-02-03T09:21:20.913Z,97.80
2023-02-03T09:24:35.104Z,97.60
2023-02-03T09:27:39.634Z,97.30
2023-02-03T09:30:42.601Z,97.20
2023-02-03T09:33:46.793Z,97.40
2023-02-03T09:36:51.297Z,97.40
2023-02-03T09:39:54.223Z,97.40
2023-02-03T09:43:06.058Z,97.60
2023-02-03T09:46:13.210Z,97.50
2023-02-03T09:49:22.819Z,97.00
2023-02-03T09:52:29.233Z,96.90
2023-02-03T09:55:38.065Z,97.10
2023-02-03T09:58:42.757Z,97.00
2023-02-03T10:01:54.028Z,96.70
2023-02-03T10:05:02.806Z,96.80
2023-02-03T10:08:15.272Z,96.60
2023-02-03T10:11:26.204Z,96.50
2023-02-03T10:14:43.126Z,95.90
2023-02-03T10:17:53.041Z,96.10
2023-02-03T10:21:01.173Z,96.00
2023-02-03T10:24:06.643Z,96.30
2023-02-03T10:27:18.379Z,96.10
2023-02-03T10:30:24.193Z,95.80
2023-02-03T10:33:29.357Z,96.00
2023-02-03T10:36:42.946Z,95.70
2023-02-03T10:39:48.495Z,95.80
2023-02-03T10:43:09.961Z,95.40
2023-02-03T10:46:14.449Z,95.40
2023-02-03T10:49:19.110Z,95.60
2023-02-03T10:52:30.973Z,95.60
2023-02-03T10:55:33.851Z,94.70
2023-02-03T10:58:39.577Z,94.90
2023-02-03T11:01:46.188Z,94.60
2023-02-03T11:04:49.421Z,94.90
2023-02-03T11:07:53.190Z,94.70
2023-02-03T11:11:04.234Z,94.80
2023-02-03T11:14:17.762Z,94.90
2023-02-03T11:17:24.453Z,94.40
2023-02-03T11:20:28.961Z,94.40
2023-02-03T11:23:32.110Z,94.20
2023-02-03T11:26:38.124Z,94.20
2023-02-03T11:29:44.022Z,94.00
2023-02-03T11:32:49.486Z,93.90
2023-02-03T11:35:59.044Z,93.30
2023-02-03T11:39:24.954Z,93.30
2023-02-03T11:42:28.220Z,93.70
2023-02-03T11:45:38.494Z,93.40
2023-02-03T11:48:57.476Z,92.80
2023-02-03T11:52:07.263Z,93.20
2023-02-03T11:55:21.221Z,92.70
2023-02-03T11:58:51.976Z,92.40
2023-02-03T12:02:30.367Z,92.60
2023-02-03T12:05:46.155Z,92.50
2023-02-03T12:09:10.625Z,92.60
2023-02-03T12:12:33.680Z,92.70
2023-02-03T12:15:52.643Z,92.50
2023-02-03T12:19:06.189Z,92.60
2023-02-03T12:22:19.676Z,92.50
2023-02-03T12:25:34.477Z,93.20
2023-02-03T12:28:47.543Z,92.40
2023-02-03T12:31:57.949Z,92.50
2023-02-03T12:35:12.839Z,92.60
2023-02-03T12:38:31.154Z,92.80
2023-02-03T12:41:39.045Z,92.40
2023-02-03T12:44:48.122Z,92.30
2023-02-03T12:47:56.158Z,92.60
2023-02-03T12:51:05.256Z,92.10
2023-02-03T12:54:19.469Z,92.30
2023-02-03T12:57:29.237Z,92.60
2023-02-03T13:00:41.486Z,92.50
2023-02-03T13:03:49.443Z,92.80
2023-02-03T13:07:01.495Z,92.60
2023-02-03T13:10:16.165Z,92.70
2023-02-03T13:13:25.567Z,92.40
2023-02-03T13:16:34.669Z,92.80
2023-02-03T13:19:43.757Z,93.20
2023-02-03T13:22:46.889Z,93.40
2023-02-03T13:26:18.686Z,93.50
2023-02-03T13:29:39.609Z,93.70
2023-02-03T13:33:12.700Z,93.70
2023-02-03T13:36:43.712Z,93.50
2023-02-03T13:39:56.648Z,93.30
2023-02-03T13:43:05.672Z,93.40
2023-02-03T13:46:18.262Z,93.40
2023-02-03T13:49:26.253Z,93.50
2023-02-03T13:52:35.116Z,93.90
2023-02-03T13:55:41.677Z,93.70
2023-02-03T13:59:00.828Z,93.50
2023-02-03T14:02:52.752Z,93.20
2023-02-03T14:05:56.935Z,93.60
2023-02-03T14:09:00.816Z,93.60
2023-02-03T14:12:41.418Z,93.40
2023-02-03T14:15:48.148Z,93.40
2023-02-03T14:18:51.050Z,93.60
2023-02-03T14:21:57.042Z,93.60
2023-02-03T14:25:07.793Z,93.40
2023-02-03T14:28:14.501Z,93.50
2023-02-03T14:31:24.043Z,93.80
2023-02-03T14:34:33.771Z,93.70
2023-02-03T14:37:36.696Z,93.80
2023-02-03T14:40:46.234Z,93.90
2023-02-03T14:43:59.086Z,93.80
2023-02-03T14:47:11.865Z,93.70
2023-02-03T14:50:35.767Z,93.80
2023-02-03T14:53:54.477Z,93.90
2023-02-03T14:57:18.376Z,94.00
2023-02-03T15:00:31.418Z,93.70
2023-02-03T15:03:37.866Z,93.80
2023-02-03T15:06:43.472Z,94.00
2023-02-03T15:09:48.207Z,94.20
2023-02-03T15:12:52.842Z,94.00
2023-02-03T15:15:57.554Z,94.30
2023-02-03T15:19:07.361Z,94.30
2023-02-03T15:22:24.122Z,94.40
2023-02-03T15:25:29.740Z,94.30
2023-02-03T15:28:32.861Z,94.50
2023-02-03T15:31:42.475Z,94.30
2023-02-03T15:34:49.836Z,94.30
2023-02-03T15:37:57.252Z,94.60
2023-02-03T15:41:00.183Z,94.80
2023-02-03T15:44:09.870Z,94.90
2023-02-03T15:47:23.511Z,95.00
2023-02-03T15:50:34.272Z,94.60
2023-02-03T15:53:47.972Z,94.70
2023-02-03T15:56:57.616Z,95.00
2023-02-03T16:00:03.359Z,95.00
2023-02-03T16:03:15.832Z,95.10
2023-02-03T16:06:25.545Z,95.20
2023-02-03T16:09:34.205Z,95.60
2023-02-03T16:12:37.079Z,95.70
2023-02-03T16:15:39.948Z,96.00
2023-02-03T16:18:51.883Z,95.90
2023-02-03T16:21:57.715Z,95.80
2023-02-03T16:25:15.233Z,95.60
2023-02-03T16:28:36.794Z,96.20
2023-02-03T16:32:02.359Z,96.30
2023-02-03T16:35:28.576Z,96.40
2023-02-03T16:38:50.401Z,97.00
2023-02-03T16:42:10.887Z,97.10
2023-02-03T16:45:33.756Z,97.40
2023-02-03T16:48:54.274Z,97.50
2023-02-03T16:51:57.167Z,97.60
2023-02-03T16:55:01.351Z,97.50
2023-02-03T16:58:04.170Z,97.70
2023-02-03T17:01:09.578Z,97.60
2023-02-03T17:04:12.575Z,97.60
2023-02-03T17:07:15.438Z,97.60
2023-02-03T17:10:19.699Z,97.70
2023-02-03T17:13:24.366Z,97.60
2023-02-03T17:16:28.743Z,97.70
2023-02-03T17:19:31.604Z,97.90
2023-02-03T17:22:34.855Z,97.90
2023-02-03T17:25:40.496Z,98.10
2023-02-03T17:28:44.281Z,98.00
2023-02-03T17:31:47.213Z,98.20
2023-02-03T17:34:50.069Z,98.20
2023-02-03T17:37:52.944Z,98.40
2023-02-03T17:54:28.439Z,99.30
2023-02-03T17:57:34.360Z,99.40
2023-02-03T18:00:37.724Z,99.80
2023-02-03T18:03:41.641Z,99.90
2023-02-03T18:06:46.287Z,99.90
2023-02-03T18:09:49.138Z,99.90
2023-02-03T18:12:53.309Z,99.90
2023-02-03T18:15:57.163Z,99.90
2023-02-03T18:19:02.184Z,99.90
2023-02-03T18:22:05.083Z,99.90
2023-02-03T18:25:09.640Z,99.90
2023-02-03T18:28:15.915Z,99.90
2023-02-03T18:31:19.099Z,99.90
2023-02-03T18:34:21.954Z,99.90
2023-02-03T18:37:24.864Z,99.90
2023-02-03T18:40:28.073Z,99.90
2023-02-03T18:43:32.589Z,99.90
2023-02-03T18:46:35.531Z,99.90
2023-02-03T18:49:39.270Z,99.90
2023-02-03T18:52:42.129Z,99.90
2023-02-03T18:55:45.467Z,99.90
2023-02-03T18:58:50.166Z,99.90
2023-02-03T19:01:53.019Z,99.90
2023-02-03T19:04:55.869Z,99.90
2023-02-03T19:07:58.749Z,99.90
2023-02-03T19:11:01.575Z,99.90
2023-02-03T19:14:05.746Z,99.90
2023-02-03T19:17:10.165Z,99.90
2023-02-03T19:20:14.236Z,99.90
2023-02-03T19:23:17.355Z,99.90
2023-02-03T19:26:20.216Z,99.90
2023-02-03T19:29:24.353Z,99.90
2023-02-03T19:32:27.242Z,99.90
2023-02-03T19:35:32.996Z,99.90
2023-02-03T19:38:36.354Z,99.90
2023-02-03T19:41:39.178Z,99.90
2023-02-03T19:44:43.644Z,99.90
2023-02-03T19:47:46.458Z,99.90
2023-02-03T19:50:49.633Z,99.90
2023-02-03T19:53:53.711Z,99.90
2023-02-03T19:56:56.603Z,99.90
2023-02-03T20:00:00.778Z,99.90
2023-02-03T20:03:03.687Z,99.90
2023-02-03T20:06:07.008Z,99.90
2023-02-03T20:09:10.291Z,99.90
2023-02-03T20:12:13.456Z,99.90
2023-02-03T20:15:17.670Z,99.90
2023-02-03T20:18:20.817Z,99.90
2023-02-03T20:21:23.637Z,99.90
2023-02-03T20:24:26.474Z,99.90
2023-02-03T20:27:29.323Z,99.90
2023-02-03T20:30:33.798Z,99.90
2023-02-03T20:33:36.747Z,99.90
2023-02-03T20:36:39.608Z,99.90
2023-02-03T20:39:42.617Z,99.90
2023-02-03T20:42:45.472Z,99.90
2023-02-03T20:45:50.341Z,99.90
2023-02-03T20:48:53.186Z,99.90
2023-02-03T20:51:56.009Z,99.90
2023-02-03T20:54:58.825Z,99.90
2023-02-03T20:58:02.826Z,99.90
2023-02-03T21:01:13.610Z,99.90
2023-02-03T21:04:36.719Z,99.90
2023-02-03T21:07:39.574Z,99.90
2023-02-03T21:10:43.208Z,99.90
2023-02-03T21:13:47.808Z,99.90
2023-02-03T21:16:53.941Z,99.90
2023-02-03T21:19:56.919Z,99.90
2023-02-03T21:23:00.180Z,99.90
2023-02-03T21:26:08.015Z,99.90
2023-02-03T21:29:21.793Z,99.90
2023-02-03T21:32:27.920Z,99.90
2023-02-03T21:35:34.867Z,99.90
2023-02-03T21:38:37.702Z,99.90
2023-02-03T21:41:40.508Z,99.90
2023-02-03T21:44:45.144Z,99.90
2023-02-03T21:47:50.693Z,99.90
2023-02-03T21:50:54.178Z,99.90
2023-02-03T21:54:00.236Z,99.90
2023-02-03T21:57:03.114Z,99.90
2023-02-03T22:00:38.906Z,99.90
2023-02-03T22:03:47.512Z,99.90
2023-02-03T22:06:53.978Z,99.90
2023-02-03T22:09:56.832Z,99.90
2023-02-03T22:12:59.778Z,99.90
2023-02-03T22:16:02.857Z,99.90
2023-02-03T22:19:07.142Z,99.90
2023-02-03T22:22:09.944Z,99.90
2023-02-03T22:25:12.882Z,99.90
2023-02-03T22:28:16.046Z,99.90
2023-02-03T22:31:19.861Z,99.90
2023-02-03T22:34:24.202Z,99.90
2023-02-03T22:37:28.135Z,99.90
2023-02-03T22:40:31.223Z,99.90
2023-02-03T22:43:34.685Z,99.90
2023-02-03T22:46:37.504Z,99.90
2023-02-03T22:49:41.697Z,99.90
2023-02-03T22:52:44.514Z,99.90
2023-02-03T22:55:47.380Z,99.90
2023-02-03T22:58:50.198Z,99.90
2023-02-03T23:01:53.686Z,99.90
2023-02-03T23:04:57.866Z,99.90
2023-02-03T23:08:00.948Z,99.90
2023-02-03T23:11:03.808Z,99.90
2023-02-03T23:14:06.752Z,99.90
2023-02-03T23:17:09.563Z,99.90
2023-02-03T23:20:16.194Z,99.90
2023-02-03T23:23:19.005Z,99.90
2023-02-03T23:26:21.838Z,99.90
2023-02-03T23:29:24.715Z,99.90
2023-02-03T23:32:27.540Z,99.90
2023-02-03T23:35:46.957Z,99.90
2023-02-03T23:38:49.788Z,99.90
2023-02-03T23:41:52.592Z,99.90
2023-02-03T23:44:55.923Z,99.90
2023-02-03T23:47:58.893Z,99.90
2023-02-03T23:51:03.084Z,99.90
2023-02-03T23:54:06.105Z,99.90
2023-02-03T23:57:08.937Z,99.90
